Palma, Spain

1:16 PM CEST on October 23, 2014 (GMT +0200)
Colegio San Cayetano | Change Station
CLOSE
Current Station
Personal Weather Station
Location: Colegio San Cayetano, ILLES BALEARS
Elevation: 219 ft
Nearby Weather Stations

Elev 219 ft 39.58 °N, 2.62 °E | Updated 1 minute ago

Partly Cloudy
Partly Cloudy
75.9 °F
Feels Like 77 °F
N
3.6
Wind Variable Wind from WNW
Gusts 4.3 mph

Today
High -- | Low -- °F
--% Chance of Precip.
Yesterday
High -- | Low -- °F
Precip. -- in
8:07 AM 6:59 PM
Waning Crescent, 0% visible
Pressure 30.12 in
Visibility 6.2 miles
Clouds Few 2800 ft
Heat Index 77 °F
Dew Point 41 °F
Humidity 29%
Rainfall 0.00 in
Snow Depth Not available.
UV 5 out of 12
Pollen Not available.
Air Quality Not available.
Flu Activity Not available.
METAR LEPA 231030Z 31009KT 270V340 9999 FEW028 24/11 Q1020 NOSIG

More Conditions Fewer Conditions

Pressure 30.12 in
Visibility 6.2 miles
Clouds Few 2800 ft
Heat Index 77 °F
Dew Point 41 °F
Humidity 29%
Rainfall 0.00 in
Snow Depth Not available.
UV 5 out of 12
Pollen Not available.
Air Quality Not available.
Flu Activity Not available.
METAR LEPA 231030Z 31009KT 270V340 9999 FEW028 24/11 Q1020 NOSIG

More Conditions Fewer Conditions

10-Day Weather Forecast

Almanac

Astronomy

Oct. 23, 2014 Rise Set
Actual Time 8:07 AM CEST 6:59 PM CEST
Civil Twilight 7:40 AM CEST 7:26 PM CEST
Nautical Twilight 7:08 AM CEST 7:58 PM CEST
Astronomical Twilight 6:37 AM CEST 8:29 PM CEST
Moon 7:32 AM CEST 6:51 PM CEST
Length of Visible Light 11h 46m
Length of Day
10h 51m
Tomorrow will be 2m 25s shorter.
Waning Crescent, 0% of the Moon is Illuminated
Today
Waning Crescent
Oct 23
New
Oct 30
First Quarter
Nov 6
Full
Nov 14
Last Quarter

Yesterday's Extremes

Country Highs Country Lows

Community

WunderPhotos

Upload Photos

1,764,204 photos uploaded!

Nearby

Snow Depth

Not available.

Earthquake Activity

City Distance Mag. Time & Date
No recent earthquake activity has been reported nearby.
Minimum magnitude displayed is 2.5.

Coastal Water Temperatures

Place Temperature
No Stations Reporting

Nearby Weather Stations